sensor_id;sensor_type;location;lat;lon;timestamp;P1;durP1;ratioP1;P2;durP2;ratioP2
64052;SDS011;50299;49.524;8.536;2024-03-23T00:55:51;7.95;;;5.72;;
64052;SDS011;50299;49.524;8.536;2024-03-23T00:58:17;5.68;;;5.05;;
64052;SDS011;50299;49.524;8.536;2024-03-23T01:00:42;9.00;;;5.20;;
64052;SDS011;50299;49.524;8.536;2024-03-23T01:03:08;7.93;;;5.15;;
64052;SDS011;50299;49.524;8.536;2024-03-23T01:05:34;9.05;;;5.88;;
64052;SDS011;50299;49.524;8.536;2024-03-23T01:07:59;8.43;;;5.97;;
64052;SDS011;50299;49.524;8.536;2024-03-23T01:10:25;8.50;;;5.70;;
64052;SDS011;50299;49.524;8.536;2024-03-23T01:12:50;5.82;;;5.22;;
64052;SDS011;50299;49.524;8.536;2024-03-23T01:15:16;6.43;;;5.32;;
64052;SDS011;50299;49.524;8.536;2024-03-23T01:17:41;7.05;;;5.30;;
64052;SDS011;50299;49.524;8.536;2024-03-23T01:20:07;6.72;;;5.43;;
64052;SDS011;50299;49.524;8.536;2024-03-23T01:22:32;7.13;;;5.55;;
64052;SDS011;50299;49.524;8.536;2024-03-23T01:24:58;9.70;;;6.28;;
64052;SDS011;50299;49.524;8.536;2024-03-23T01:27:26;10.25;;;5.38;;
64052;SDS011;50299;49.524;8.536;2024-03-23T01:29:52;9.40;;;6.28;;
64052;SDS011;50299;49.524;8.536;2024-03-23T01:32:18;11.32;;;7.05;;
64052;SDS011;50299;49.524;8.536;2024-03-23T01:34:44;7.40;;;5.75;;
64052;SDS011;50299;49.524;8.536;2024-03-23T01:37:09;13.20;;;6.22;;
64052;SDS011;50299;49.524;8.536;2024-03-23T01:39:35;6.03;;;5.43;;
64052;SDS011;50299;49.524;8.536;2024-03-23T01:42:01;8.98;;;5.78;;
64052;SDS011;50299;49.524;8.536;2024-03-23T01:44:26;7.78;;;5.57;;
64052;SDS011;50299;49.524;8.536;2024-03-23T01:46:52;8.93;;;6.88;;
64052;SDS011;50299;49.524;8.536;2024-03-23T01:49:17;8.43;;;5.82;;
64052;SDS011;50299;49.524;8.536;2024-03-23T01:51:43;8.23;;;6.25;;
64052;SDS011;50299;49.524;8.536;2024-03-23T01:54:10;7.40;;;4.90;;
64052;SDS011;50299;49.524;8.536;2024-03-23T01:56:36;8.25;;;5.05;;
64052;SDS011;50299;49.524;8.536;2024-03-23T01:59:02;9.63;;;5.45;;
64052;SDS011;50299;49.524;8.536;2024-03-23T02:01:39;7.75;;;5.85;;
64052;SDS011;50299;49.524;8.536;2024-03-23T02:04:05;8.32;;;5.72;;
64052;SDS011;50299;49.524;8.536;2024-03-23T02:06:31;7.30;;;6.20;;
64052;SDS011;50299;49.524;8.536;2024-03-23T02:08:56;8.05;;;5.65;;
64052;SDS011;50299;49.524;8.536;2024-03-23T02:11:23;10.10;;;5.75;;
64052;SDS011;50299;49.524;8.536;2024-03-23T02:13:48;8.10;;;5.97;;
64052;SDS011;50299;49.524;8.536;2024-03-23T02:16:14;7.40;;;5.70;;
64052;SDS011;50299;49.524;8.536;2024-03-23T02:18:39;7.50;;;6.10;;
64052;SDS011;50299;49.524;8.536;2024-03-23T02:21:05;7.00;;;5.47;;
64052;SDS011;50299;49.524;8.536;2024-03-23T02:23:34;10.45;;;6.47;;
64052;SDS011;50299;49.524;8.536;2024-03-23T02:26:00;7.18;;;5.55;;
64052;SDS011;50299;49.524;8.536;2024-03-23T02:28:26;7.30;;;5.47;;
64052;SDS011;50299;49.524;8.536;2024-03-23T02:30:51;7.13;;;5.72;;
64052;SDS011;50299;49.524;8.536;2024-03-23T02:33:17;6.30;;;5.28;;
64052;SDS011;50299;49.524;8.536;2024-03-23T02:35:43;7.40;;;5.65;;
64052;SDS011;50299;49.524;8.536;2024-03-23T02:38:10;7.15;;;5.60;;
64052;SDS011;50299;49.524;8.536;2024-03-23T02:40:35;7.40;;;5.25;;
64052;SDS011;50299;49.524;8.536;2024-03-23T02:43:02;7.15;;;5.13;;
64052;SDS011;50299;49.524;8.536;2024-03-23T02:45:28;6.47;;;5.72;;
64052;SDS011;50299;49.524;8.536;2024-03-23T02:47:54;7.13;;;5.07;;
64052;SDS011;50299;49.524;8.536;2024-03-23T02:50:19;6.25;;;5.32;;
64052;SDS011;50299;49.524;8.536;2024-03-23T02:52:45;7.78;;;5.32;;
64052;SDS011;50299;49.524;8.536;2024-03-23T02:55:11;8.25;;;5.40;;
64052;SDS011;50299;49.524;8.536;2024-03-23T02:57:37;10.02;;;5.40;;
64052;SDS011;50299;49.524;8.536;2024-03-23T03:03:02;9.90;;;6.07;;
64052;SDS011;50299;49.524;8.536;2024-03-23T03:05:28;6.88;;;5.53;;
64052;SDS011;50299;49.524;8.536;2024-03-23T03:07:54;8.93;;;5.38;;
64052;SDS011;50299;49.524;8.536;2024-03-23T03:10:19;9.40;;;6.28;;
64052;SDS011;50299;49.524;8.536;2024-03-23T03:12:45;6.63;;;5.18;;
64052;SDS011;50299;49.524;8.536;2024-03-23T03:15:10;9.00;;;5.18;;
64052;SDS011;50299;49.524;8.536;2024-03-23T03:17:36;9.30;;;4.97;;
64052;SDS011;50299;49.524;8.536;2024-03-23T03:20:02;11.30;;;5.93;;
64052;SDS011;50299;49.524;8.536;2024-03-23T03:22:30;8.85;;;5.88;;
64052;SDS011;50299;49.524;8.536;2024-03-23T03:24:55;5.78;;;4.45;;
64052;SDS011;50299;49.524;8.536;2024-03-23T03:27:24;11.88;;;5.95;;
64052;SDS011;50299;49.524;8.536;2024-03-23T03:29:49;9.77;;;5.20;;
64052;SDS011;50299;49.524;8.536;2024-03-23T03:32:15;7.18;;;4.90;;
64052;SDS011;50299;49.524;8.536;2024-03-23T03:34:40;8.43;;;4.70;;
64052;SDS011;50299;49.524;8.536;2024-03-23T03:37:09;7.85;;;5.10;;
64052;SDS011;50299;49.524;8.536;2024-03-23T03:39:34;8.95;;;5.10;;
64052;SDS011;50299;49.524;8.536;2024-03-23T03:42:00;7.00;;;4.68;;
64052;SDS011;50299;49.524;8.536;2024-03-23T03:44:27;8.57;;;4.90;;
64052;SDS011;50299;49.524;8.536;2024-03-23T03:46:52;9.25;;;4.85;;
64052;SDS011;50299;49.524;8.536;2024-03-23T03:49:18;8.60;;;4.70;;
64052;SDS011;50299;49.524;8.536;2024-03-23T03:51:43;9.25;;;5.25;;
64052;SDS011;50299;49.524;8.536;2024-03-23T03:54:12;8.27;;;4.53;;
64052;SDS011;50299;49.524;8.536;2024-03-23T03:56:37;8.70;;;5.63;;
64052;SDS011;50299;49.524;8.536;2024-03-23T03:59:03;8.68;;;4.72;;
64052;SDS011;50299;49.524;8.536;2024-03-23T04:01:28;11.07;;;5.45;;
64052;SDS011;50299;49.524;8.536;2024-03-23T04:03:54;7.38;;;4.78;;
64052;SDS011;50299;49.524;8.536;2024-03-23T04:06:19;8.90;;;5.30;;
64052;SDS011;50299;49.524;8.536;2024-03-23T04:08:45;7.88;;;4.88;;
64052;SDS011;50299;49.524;8.536;2024-03-23T04:11:11;7.88;;;4.90;;
64052;SDS011;50299;49.524;8.536;2024-03-23T04:13:36;9.88;;;5.45;;
64052;SDS011;50299;49.524;8.536;2024-03-23T04:16:02;9.30;;;4.93;;
64052;SDS011;50299;49.524;8.536;2024-03-23T04:18:27;7.28;;;4.60;;
64052;SDS011;50299;49.524;8.536;2024-03-23T04:20:53;9.80;;;5.18;;
64052;SDS011;50299;49.524;8.536;2024-03-23T04:23:18;9.93;;;5.28;;
64052;SDS011;50299;49.524;8.536;2024-03-23T04:25:44;10.32;;;4.97;;
64052;SDS011;50299;49.524;8.536;2024-03-23T04:28:09;10.70;;;5.43;;
64052;SDS011;50299;49.524;8.536;2024-03-23T04:30:35;7.82;;;5.57;;
64052;SDS011;50299;49.524;8.536;2024-03-23T04:33:00;7.70;;;5.68;;
64052;SDS011;50299;49.524;8.536;2024-03-23T04:35:26;8.45;;;4.65;;
64052;SDS011;50299;49.524;8.536;2024-03-23T04:37:52;9.55;;;5.38;;
64052;SDS011;50299;49.524;8.536;2024-03-23T04:40:18;10.48;;;5.18;;
64052;SDS011;50299;49.524;8.536;2024-03-23T04:42:44;10.82;;;5.50;;
64052;SDS011;50299;49.524;8.536;2024-03-23T04:45:09;9.75;;;5.20;;
64052;SDS011;50299;49.524;8.536;2024-03-23T04:47:36;9.65;;;4.88;;
64052;SDS011;50299;49.524;8.536;2024-03-23T04:50:03;9.07;;;5.03;;
64052;SDS011;50299;49.524;8.536;2024-03-23T04:52:29;9.07;;;4.78;;
64052;SDS011;50299;49.524;8.536;2024-03-23T04:54:55;6.82;;;4.20;;
64052;SDS011;50299;49.524;8.536;2024-03-23T04:57:20;6.50;;;3.90;;
64052;SDS011;50299;49.524;8.536;2024-03-23T04:59:46;8.00;;;3.67;;
64052;SDS011;50299;49.524;8.536;2024-03-23T05:02:12;5.70;;;3.20;;
64052;SDS011;50299;49.524;8.536;2024-03-23T05:04:38;5.43;;;2.80;;
64052;SDS011;50299;49.524;8.536;2024-03-23T05:07:03;4.38;;;2.90;;
64052;SDS011;50299;49.524;8.536;2024-03-23T05:09:32;3.85;;;2.75;;
64052;SDS011;50299;49.524;8.536;2024-03-23T05:12:01;4.90;;;2.50;;
64052;SDS011;50299;49.524;8.536;2024-03-23T05:16:53;2.70;;;1.98;;
64052;SDS011;50299;49.524;8.536;2024-03-23T05:19:19;2.95;;;2.25;;
64052;SDS011;50299;49.524;8.536;2024-03-23T05:21:45;4.50;;;2.40;;
64052;SDS011;50299;49.524;8.536;2024-03-23T05:24:11;2.60;;;2.05;;
64052;SDS011;50299;49.524;8.536;2024-03-23T05:26:37;2.55;;;1.90;;
64052;SDS011;50299;49.524;8.536;2024-03-23T05:29:03;1.67;;;1.50;;
64052;SDS011;50299;49.524;8.536;2024-03-23T05:31:29;2.08;;;1.38;;
64052;SDS011;50299;49.524;8.536;2024-03-23T05:33:56;2.22;;;1.58;;
64052;SDS011;50299;49.524;8.536;2024-03-23T05:36:21;1.67;;;1.55;;
64052;SDS011;50299;49.524;8.536;2024-03-23T05:38:47;1.75;;;1.65;;
64052;SDS011;50299;49.524;8.536;2024-03-23T05:41:13;2.28;;;1.80;;
64052;SDS011;50299;49.524;8.536;2024-03-23T05:43:39;1.80;;;1.65;;
64052;SDS011;50299;49.524;8.536;2024-03-23T05:46:04;1.90;;;1.80;;
64052;SDS011;50299;49.524;8.536;2024-03-23T05:48:34;2.08;;;1.88;;
64052;SDS011;50299;49.524;8.536;2024-03-23T05:50:59;2.17;;;1.48;;
64052;SDS011;50299;49.524;8.536;2024-03-23T05:53:25;1.90;;;1.75;;
64052;SDS011;50299;49.524;8.536;2024-03-23T05:55:51;1.45;;;1.35;;
64052;SDS011;50299;49.524;8.536;2024-03-23T05:58:24;1.45;;;1.35;;
64052;SDS011;50299;49.524;8.536;2024-03-23T06:00:56;1.15;;;1.02;;
64052;SDS011;50299;49.524;8.536;2024-03-23T06:03:22;1.10;;;1.10;;
64052;SDS011;50299;49.524;8.536;2024-03-23T06:05:48;2.05;;;1.10;;
64052;SDS011;50299;49.524;8.536;2024-03-23T06:08:16;0.98;;;0.95;;
64052;SDS011;50299;49.524;8.536;2024-03-23T06:10:42;1.10;;;1.00;;
64052;SDS011;50299;49.524;8.536;2024-03-23T06:13:07;1.45;;;1.35;;
64052;SDS011;50299;49.524;8.536;2024-03-23T06:15:33;1.20;;;1.10;;
64052;SDS011;50299;49.524;8.536;2024-03-23T06:18:03;1.15;;;1.15;;
64052;SDS011;50299;49.524;8.536;2024-03-23T06:20:29;1.10;;;1.10;;
64052;SDS011;50299;49.524;8.536;2024-03-23T06:22:55;1.20;;;1.10;;
64052;SDS011;50299;49.524;8.536;2024-03-23T06:25:21;1.30;;;1.20;;
64052;SDS011;50299;49.524;8.536;2024-03-23T06:27:46;2.20;;;1.20;;
64052;SDS011;50299;49.524;8.536;2024-03-23T06:30:12;1.20;;;1.10;;
64052;SDS011;50299;49.524;8.536;2024-03-23T06:32:38;1.48;;;1.40;;
64052;SDS011;50299;49.524;8.536;2024-03-23T06:35:03;1.20;;;1.10;;
64052;SDS011;50299;49.524;8.536;2024-03-23T06:37:36;0.80;;;0.80;;
64052;SDS011;50299;49.524;8.536;2024-03-23T06:40:04;0.73;;;0.73;;
64052;SDS011;50299;49.524;8.536;2024-03-23T06:42:33;0.60;;;0.60;;
64052;SDS011;50299;49.524;8.536;2024-03-23T06:44:59;0.70;;;0.70;;
64052;SDS011;50299;49.524;8.536;2024-03-23T06:47:24;1.48;;;0.68;;
64052;SDS011;50299;49.524;8.536;2024-03-23T06:49:50;0.60;;;0.60;;
64052;SDS011;50299;49.524;8.536;2024-03-23T06:52:16;0.60;;;0.60;;
64052;SDS011;50299;49.524;8.536;2024-03-23T06:54:42;0.70;;;0.70;;
64052;SDS011;50299;49.524;8.536;2024-03-23T06:57:07;3.55;;;0.70;;
64052;SDS011;50299;49.524;8.536;2024-03-23T06:59:33;0.40;;;0.40;;
64052;SDS011;50299;49.524;8.536;2024-03-23T07:01:58;0.70;;;0.70;;
64052;SDS011;50299;49.524;8.536;2024-03-23T07:04:24;0.60;;;0.60;;
64052;SDS011;50299;49.524;8.536;2024-03-23T07:06:49;0.50;;;0.50;;
64052;SDS011;50299;49.524;8.536;2024-03-23T07:09:15;0.60;;;0.60;;
64052;SDS011;50299;49.524;8.536;2024-03-23T07:11:41;0.52;;;0.52;;
64052;SDS011;50299;49.524;8.536;2024-03-23T07:14:06;0.68;;;0.68;;
64052;SDS011;50299;49.524;8.536;2024-03-23T07:16:32;0.57;;;0.57;;
64052;SDS011;50299;49.524;8.536;2024-03-23T07:18:58;0.60;;;0.60;;
64052;SDS011;50299;49.524;8.536;2024-03-23T07:21:23;0.68;;;0.68;;
64052;SDS011;50299;49.524;8.536;2024-03-23T07:23:49;1.20;;;0.80;;
64052;SDS011;50299;49.524;8.536;2024-03-23T07:26:15;0.75;;;0.70;;
64052;SDS011;50299;49.524;8.536;2024-03-23T07:28:40;0.50;;;0.50;;
64052;SDS011;50299;49.524;8.536;2024-03-23T07:31:12;0.70;;;0.70;;
64052;SDS011;50299;49.524;8.536;2024-03-23T07:33:43;0.80;;;0.70;;
64052;SDS011;50299;49.524;8.536;2024-03-23T07:36:10;1.00;;;0.85;;
64052;SDS011;50299;49.524;8.536;2024-03-23T07:38:36;1.63;;;0.68;;
64052;SDS011;50299;49.524;8.536;2024-03-23T07:41:06;0.52;;;0.52;;
64052;SDS011;50299;49.524;8.536;2024-03-23T07:43:32;0.77;;;0.75;;
64052;SDS011;50299;49.524;8.536;2024-03-23T07:45:58;1.08;;;0.50;;
64052;SDS011;50299;49.524;8.536;2024-03-23T07:48:24;0.57;;;0.57;;
64052;SDS011;50299;49.524;8.536;2024-03-23T07:50:57;0.60;;;0.60;;
64052;SDS011;50299;49.524;8.536;2024-03-23T07:53:25;0.52;;;0.52;;
64052;SDS011;50299;49.524;8.536;2024-03-23T07:56:13;0.77;;;0.77;;
64052;SDS011;50299;49.524;8.536;2024-03-23T07:58:40;0.95;;;0.70;;
64052;SDS011;50299;49.524;8.536;2024-03-23T08:01:12;0.75;;;0.75;;
64052;SDS011;50299;49.524;8.536;2024-03-23T08:03:43;0.85;;;0.70;;
64052;SDS011;50299;49.524;8.536;2024-03-23T08:06:13;1.23;;;1.13;;
64052;SDS011;50299;49.524;8.536;2024-03-23T08:08:41;1.17;;;0.88;;
64052;SDS011;50299;49.524;8.536;2024-03-23T08:11:07;1.38;;;0.68;;
64052;SDS011;50299;49.524;8.536;2024-03-23T08:13:33;0.80;;;0.70;;
64052;SDS011;50299;49.524;8.536;2024-03-23T08:16:00;1.02;;;0.60;;
64052;SDS011;50299;49.524;8.536;2024-03-23T08:18:27;1.00;;;0.90;;
64052;SDS011;50299;49.524;8.536;2024-03-23T08:20:57;0.60;;;0.60;;
64052;SDS011;50299;49.524;8.536;2024-03-23T08:23:24;0.82;;;0.80;;
64052;SDS011;50299;49.524;8.536;2024-03-23T08:26:02;2.25;;;0.55;;
64052;SDS011;50299;49.524;8.536;2024-03-23T08:28:32;1.02;;;0.75;;
64052;SDS011;50299;49.524;8.536;2024-03-23T08:31:00;1.05;;;0.65;;
64052;SDS011;50299;49.524;8.536;2024-03-23T08:33:28;1.23;;;0.70;;
64052;SDS011;50299;49.524;8.536;2024-03-23T08:35:54;0.85;;;0.65;;
64052;SDS011;50299;49.524;8.536;2024-03-23T08:38:21;1.27;;;0.63;;
64052;SDS011;50299;49.524;8.536;2024-03-23T08:40:47;2.08;;;0.63;;
64052;SDS011;50299;49.524;8.536;2024-03-23T08:43:12;1.33;;;0.90;;
64052;SDS011;50299;49.524;8.536;2024-03-23T08:45:38;2.28;;;0.68;;
64052;SDS011;50299;49.524;8.536;2024-03-23T08:48:04;1.67;;;0.73;;
64052;SDS011;50299;49.524;8.536;2024-03-23T08:50:29;1.05;;;0.75;;
64052;SDS011;50299;49.524;8.536;2024-03-23T08:52:55;1.75;;;1.05;;
64052;SDS011;50299;49.524;8.536;2024-03-23T08:55:21;1.75;;;0.50;;
64052;SDS011;50299;49.524;8.536;2024-03-23T08:57:46;1.15;;;0.80;;
64052;SDS011;50299;49.524;8.536;2024-03-23T09:00:12;1.13;;;0.88;;
64052;SDS011;50299;49.524;8.536;2024-03-23T09:02:41;1.40;;;0.82;;
64052;SDS011;50299;49.524;8.536;2024-03-23T09:05:06;3.28;;;1.02;;
64052;SDS011;50299;49.524;8.536;2024-03-23T09:07:32;1.38;;;0.93;;
64052;SDS011;50299;49.524;8.536;2024-03-23T09:09:57;1.80;;;1.00;;
64052;SDS011;50299;49.524;8.536;2024-03-23T09:12:23;1.65;;;0.93;;
64052;SDS011;50299;49.524;8.536;2024-03-23T09:14:49;4.20;;;1.27;;
64052;SDS011;50299;49.524;8.536;2024-03-23T09:17:15;2.75;;;1.20;;
64052;SDS011;50299;49.524;8.536;2024-03-23T09:19:41;2.13;;;1.33;;
64052;SDS011;50299;49.524;8.536;2024-03-23T09:22:07;1.30;;;1.20;;
64052;SDS011;50299;49.524;8.536;2024-03-23T09:24:32;2.28;;;1.30;;
64052;SDS011;50299;49.524;8.536;2024-03-23T09:26:58;3.70;;;1.77;;
64052;SDS011;50299;49.524;8.536;2024-03-23T09:29:23;2.40;;;1.33;;
64052;SDS011;50299;49.524;8.536;2024-03-23T09:31:49;2.75;;;1.20;;
64052;SDS011;50299;49.524;8.536;2024-03-23T09:34:14;3.65;;;1.38;;
64052;SDS011;50299;49.524;8.536;2024-03-23T09:36:40;2.72;;;1.30;;
64052;SDS011;50299;49.524;8.536;2024-03-23T09:39:06;7.28;;;1.88;;
64052;SDS011;50299;49.524;8.536;2024-03-23T09:41:34;2.50;;;1.70;;
64052;SDS011;50299;49.524;8.536;2024-03-23T09:44:01;7.22;;;1.50;;
64052;SDS011;50299;49.524;8.536;2024-03-23T09:46:27;2.17;;;1.27;;
64052;SDS011;50299;49.524;8.536;2024-03-23T09:48:55;3.47;;;1.85;;
64052;SDS011;50299;49.524;8.536;2024-03-23T09:51:21;5.30;;;2.22;;
64052;SDS011;50299;49.524;8.536;2024-03-23T09:53:49;3.35;;;1.80;;
64052;SDS011;50299;49.524;8.536;2024-03-23T09:56:18;4.03;;;1.67;;
64052;SDS011;50299;49.524;8.536;2024-03-23T09:58:43;2.88;;;1.60;;
64052;SDS011;50299;49.524;8.536;2024-03-23T10:01:09;5.10;;;1.50;;
64052;SDS011;50299;49.524;8.536;2024-03-23T10:03:42;2.10;;;1.20;;
64052;SDS011;50299;49.524;8.536;2024-03-23T10:06:08;1.73;;;1.25;;
64052;SDS011;50299;49.524;8.536;2024-03-23T10:08:34;3.28;;;1.38;;
64052;SDS011;50299;49.524;8.536;2024-03-23T10:11:13;1.40;;;1.30;;
64052;SDS011;50299;49.524;8.536;2024-03-23T10:13:44;2.85;;;1.60;;
64052;SDS011;50299;49.524;8.536;2024-03-23T10:16:11;1.77;;;1.40;;
64052;SDS011;50299;49.524;8.536;2024-03-23T10:18:38;2.67;;;1.00;;
64052;SDS011;50299;49.524;8.536;2024-03-23T10:21:08;6.13;;;1.83;;
64052;SDS011;50299;49.524;8.536;2024-03-23T10:23:36;3.25;;;1.30;;
64052;SDS011;50299;49.524;8.536;2024-03-23T10:26:22;1.70;;;1.50;;
64052;SDS011;50299;49.524;8.536;2024-03-23T10:29:00;2.38;;;1.30;;
64052;SDS011;50299;49.524;8.536;2024-03-23T10:31:27;2.38;;;1.35;;
64052;SDS011;50299;49.524;8.536;2024-03-23T10:33:53;2.03;;;1.20;;
64052;SDS011;50299;49.524;8.536;2024-03-23T10:36:23;1.48;;;0.90;;
64052;SDS011;50299;49.524;8.536;2024-03-23T10:38:53;0.90;;;0.90;;
64052;SDS011;50299;49.524;8.536;2024-03-23T10:41:19;3.88;;;1.33;;
64052;SDS011;50299;49.524;8.536;2024-03-23T10:43:46;1.30;;;0.95;;
64052;SDS011;50299;49.524;8.536;2024-03-23T10:46:12;2.63;;;1.30;;
64052;SDS011;50299;49.524;8.536;2024-03-23T10:48:38;2.05;;;1.10;;
64052;SDS011;50299;49.524;8.536;2024-03-23T10:51:04;5.80;;;2.15;;
64052;SDS011;50299;49.524;8.536;2024-03-23T10:53:32;2.40;;;1.45;;
64052;SDS011;50299;49.524;8.536;2024-03-23T10:55:59;1.50;;;0.90;;
64052;SDS011;50299;49.524;8.536;2024-03-23T10:58:32;1.55;;;1.17;;
64052;SDS011;50299;49.524;8.536;2024-03-23T11:01:03;1.08;;;0.95;;
64052;SDS011;50299;49.524;8.536;2024-03-23T11:03:36;1.23;;;0.90;;
64052;SDS011;50299;49.524;8.536;2024-03-23T11:06:03;2.70;;;1.08;;
64052;SDS011;50299;49.524;8.536;2024-03-23T11:08:33;1.85;;;1.05;;
64052;SDS011;50299;49.524;8.536;2024-03-23T11:11:19;2.85;;;1.40;;
64052;SDS011;50299;49.524;8.536;2024-03-23T11:13:49;2.78;;;1.20;;
64052;SDS011;50299;49.524;8.536;2024-03-23T11:16:17;1.60;;;1.10;;
64052;SDS011;50299;49.524;8.536;2024-03-23T11:18:47;2.97;;;1.17;;
64052;SDS011;50299;49.524;8.536;2024-03-23T11:24:16;1.23;;;1.13;;
64052;SDS011;50299;49.524;8.536;2024-03-23T11:26:41;1.80;;;0.88;;
64052;SDS011;50299;49.524;8.536;2024-03-23T11:29:10;3.72;;;1.25;;
64052;SDS011;50299;49.524;8.536;2024-03-23T11:31:46;2.38;;;1.17;;
64052;SDS011;50299;49.524;8.536;2024-03-23T11:34:13;2.42;;;0.98;;
64052;SDS011;50299;49.524;8.536;2024-03-23T11:36:40;1.40;;;0.93;;
64052;SDS011;50299;49.524;8.536;2024-03-23T11:39:15;1.23;;;0.70;;
64052;SDS011;50299;49.524;8.536;2024-03-23T11:41:56;1.58;;;0.70;;
64052;SDS011;50299;49.524;8.536;2024-03-23T11:44:23;1.05;;;0.95;;
64052;SDS011;50299;49.524;8.536;2024-03-23T11:46:50;0.60;;;0.60;;
64052;SDS011;50299;49.524;8.536;2024-03-23T11:49:27;0.70;;;0.70;;
64052;SDS011;50299;49.524;8.536;2024-03-23T11:51:54;0.90;;;0.80;;
64052;SDS011;50299;49.524;8.536;2024-03-23T11:54:21;2.88;;;1.00;;
64052;SDS011;50299;49.524;8.536;2024-03-23T11:57:08;1.08;;;0.80;;
64052;SDS011;50299;49.524;8.536;2024-03-23T11:59:38;1.52;;;1.02;;
64052;SDS011;50299;49.524;8.536;2024-03-23T12:02:12;2.67;;;0.80;;
64052;SDS011;50299;49.524;8.536;2024-03-23T12:04:41;0.98;;;0.90;;
64052;SDS011;50299;49.524;8.536;2024-03-23T12:07:14;1.20;;;1.10;;
64052;SDS011;50299;49.524;8.536;2024-03-23T12:09:44;1.65;;;0.80;;
64052;SDS011;50299;49.524;8.536;2024-03-23T12:12:14;1.00;;;1.00;;
64052;SDS011;50299;49.524;8.536;2024-03-23T12:14:42;0.88;;;0.88;;
64052;SDS011;50299;49.524;8.536;2024-03-23T12:17:17;2.28;;;1.20;;
64052;SDS011;50299;49.524;8.536;2024-03-23T12:19:46;1.48;;;0.98;;
64052;SDS011;50299;49.524;8.536;2024-03-23T12:22:12;4.35;;;1.02;;
64052;SDS011;50299;49.524;8.536;2024-03-23T12:24:38;2.08;;;1.38;;
64052;SDS011;50299;49.524;8.536;2024-03-23T12:27:10;2.75;;;1.00;;
64052;SDS011;50299;49.524;8.536;2024-03-23T12:29:35;3.92;;;1.52;;
64052;SDS011;50299;49.524;8.536;2024-03-23T12:32:01;2.63;;;1.35;;
64052;SDS011;50299;49.524;8.536;2024-03-23T12:34:28;4.03;;;1.50;;
64052;SDS011;50299;49.524;8.536;2024-03-23T12:36:55;2.63;;;1.42;;
64052;SDS011;50299;49.524;8.536;2024-03-23T12:39:21;1.30;;;1.02;;
64052;SDS011;50299;49.524;8.536;2024-03-23T12:41:47;1.55;;;1.00;;
64052;SDS011;50299;49.524;8.536;2024-03-23T12:44:13;1.00;;;1.00;;
64052;SDS011;50299;49.524;8.536;2024-03-23T12:46:39;1.00;;;1.00;;
64052;SDS011;50299;49.524;8.536;2024-03-23T12:49:04;1.10;;;1.08;;
64052;SDS011;50299;49.524;8.536;2024-03-23T12:51:31;1.08;;;1.05;;
64052;SDS011;50299;49.524;8.536;2024-03-23T12:53:57;1.10;;;0.90;;
64052;SDS011;50299;49.524;8.536;2024-03-23T12:56:22;0.98;;;0.90;;
64052;SDS011;50299;49.524;8.536;2024-03-23T12:58:48;2.58;;;1.15;;
64052;SDS011;50299;49.524;8.536;2024-03-23T13:01:19;0.90;;;0.90;;
64052;SDS011;50299;49.524;8.536;2024-03-23T13:03:48;0.60;;;0.60;;
64052;SDS011;50299;49.524;8.536;2024-03-23T13:08:40;1.38;;;0.50;;
64052;SDS011;50299;49.524;8.536;2024-03-23T13:11:09;0.75;;;0.75;;
64052;SDS011;50299;49.524;8.536;2024-03-23T13:13:36;0.47;;;0.47;;
64052;SDS011;50299;49.524;8.536;2024-03-23T13:16:02;0.80;;;0.65;;
64052;SDS011;50299;49.524;8.536;2024-03-23T13:18:28;1.60;;;0.60;;
64052;SDS011;50299;49.524;8.536;2024-03-23T13:23:23;0.60;;;0.60;;
64052;SDS011;50299;49.524;8.536;2024-03-23T13:25:49;1.73;;;0.63;;
64052;SDS011;50299;49.524;8.536;2024-03-23T13:28:19;0.60;;;0.60;;
64052;SDS011;50299;49.524;8.536;2024-03-23T13:33:17;0.60;;;0.60;;
64052;SDS011;50299;49.524;8.536;2024-03-23T13:35:52;0.60;;;0.60;;
64052;SDS011;50299;49.524;8.536;2024-03-23T13:38:19;0.85;;;0.85;;
64052;SDS011;50299;49.524;8.536;2024-03-23T13:41:03;0.57;;;0.57;;
64052;SDS011;50299;49.524;8.536;2024-03-23T13:43:30;0.73;;;0.73;;
64052;SDS011;50299;49.524;8.536;2024-03-23T13:45:56;1.13;;;1.02;;
64052;SDS011;50299;49.524;8.536;2024-03-23T13:48:26;0.70;;;0.70;;
64052;SDS011;50299;49.524;8.536;2024-03-23T13:50:59;1.17;;;0.88;;
64052;SDS011;50299;49.524;8.536;2024-03-23T13:53:25;2.22;;;1.00;;
64052;SDS011;50299;49.524;8.536;2024-03-23T13:55:51;0.73;;;0.65;;
64052;SDS011;50299;49.524;8.536;2024-03-23T13:58:16;0.80;;;0.80;;
64052;SDS011;50299;49.524;8.536;2024-03-23T14:00:42;1.95;;;0.75;;
64052;SDS011;50299;49.524;8.536;2024-03-23T14:03:12;0.70;;;0.70;;
64052;SDS011;50299;49.524;8.536;2024-03-23T14:05:38;1.05;;;0.88;;
64052;SDS011;50299;49.524;8.536;2024-03-23T14:08:10;0.75;;;0.75;;
64052;SDS011;50299;49.524;8.536;2024-03-23T14:10:36;0.52;;;0.52;;
64052;SDS011;50299;49.524;8.536;2024-03-23T14:13:05;1.73;;;1.17;;
64052;SDS011;50299;49.524;8.536;2024-03-23T14:15:31;1.60;;;0.80;;
64052;SDS011;50299;49.524;8.536;2024-03-23T14:17:57;0.73;;;0.73;;
64052;SDS011;50299;49.524;8.536;2024-03-23T14:20:23;1.52;;;0.63;;
64052;SDS011;50299;49.524;8.536;2024-03-23T14:22:49;0.75;;;0.75;;
64052;SDS011;50299;49.524;8.536;2024-03-23T14:25:15;1.05;;;0.98;;
64052;SDS011;50299;49.524;8.536;2024-03-23T14:27:41;0.82;;;0.60;;
64052;SDS011;50299;49.524;8.536;2024-03-23T14:30:08;0.50;;;0.50;;
64052;SDS011;50299;49.524;8.536;2024-03-23T14:32:35;1.40;;;0.80;;
64052;SDS011;50299;49.524;8.536;2024-03-23T14:35:01;0.70;;;0.70;;
64052;SDS011;50299;49.524;8.536;2024-03-23T14:37:27;0.60;;;0.60;;
64052;SDS011;50299;49.524;8.536;2024-03-23T14:39:52;0.75;;;0.75;;
64052;SDS011;50299;49.524;8.536;2024-03-23T14:42:18;1.42;;;0.70;;
64052;SDS011;50299;49.524;8.536;2024-03-23T14:44:44;0.80;;;0.80;;
64052;SDS011;50299;49.524;8.536;2024-03-23T14:47:09;2.97;;;0.77;;
64052;SDS011;50299;49.524;8.536;2024-03-23T14:49:35;0.98;;;0.60;;
64052;SDS011;50299;49.524;8.536;2024-03-23T14:52:01;0.52;;;0.52;;
64052;SDS011;50299;49.524;8.536;2024-03-23T14:54:26;0.70;;;0.70;;
64052;SDS011;50299;49.524;8.536;2024-03-23T14:56:52;1.33;;;0.80;;
64052;SDS011;50299;49.524;8.536;2024-03-23T14:59:17;0.93;;;0.93;;
64052;SDS011;50299;49.524;8.536;2024-03-23T15:01:45;1.48;;;0.95;;
64052;SDS011;50299;49.524;8.536;2024-03-23T15:04:10;2.30;;;0.60;;
64052;SDS011;50299;49.524;8.536;2024-03-23T15:06:36;0.68;;;0.68;;
64052;SDS011;50299;49.524;8.536;2024-03-23T15:09:01;0.50;;;0.50;;
64052;SDS011;50299;49.524;8.536;2024-03-23T15:11:27;0.60;;;0.60;;
64052;SDS011;50299;49.524;8.536;2024-03-23T15:13:52;1.80;;;1.08;;
64052;SDS011;50299;49.524;8.536;2024-03-23T15:16:18;0.60;;;0.60;;
64052;SDS011;50299;49.524;8.536;2024-03-23T15:18:46;0.50;;;0.50;;
64052;SDS011;50299;49.524;8.536;2024-03-23T15:21:12;0.70;;;0.70;;
64052;SDS011;50299;49.524;8.536;2024-03-23T15:23:39;0.95;;;0.80;;
64052;SDS011;50299;49.524;8.536;2024-03-23T15:26:05;0.65;;;0.65;;
64052;SDS011;50299;49.524;8.536;2024-03-23T15:28:33;0.50;;;0.50;;
64052;SDS011;50299;49.524;8.536;2024-03-23T15:31:17;0.40;;;0.40;;
64052;SDS011;50299;49.524;8.536;2024-03-23T15:33:42;1.02;;;0.70;;
64052;SDS011;50299;49.524;8.536;2024-03-23T15:36:08;0.88;;;0.50;;
64052;SDS011;50299;49.524;8.536;2024-03-23T15:38:33;0.43;;;0.43;;
64052;SDS011;50299;49.524;8.536;2024-03-23T15:40:59;0.50;;;0.50;;
64052;SDS011;50299;49.524;8.536;2024-03-23T15:43:25;2.33;;;0.65;;
64052;SDS011;50299;49.524;8.536;2024-03-23T15:45:58;0.45;;;0.45;;
64052;SDS011;50299;49.524;8.536;2024-03-23T15:48:25;2.97;;;0.68;;
64052;SDS011;50299;49.524;8.536;2024-03-23T15:50:52;0.98;;;0.70;;
64052;SDS011;50299;49.524;8.536;2024-03-23T15:53:22;1.25;;;1.20;;
64052;SDS011;50299;49.524;8.536;2024-03-23T15:58:20;0.63;;;0.60;;
64052;SDS011;50299;49.524;8.536;2024-03-23T16:00:55;0.63;;;0.60;;